EDDF/FRA METAR and TAF weather

Enter ICAO airport designator
Station Type Date Time Source
EDDF METAR 2021/05/11 01:20 UTC NOAA

EDDF 110120Z 28003KT 260V320 8000 -RA FEW004 SCT045 13/12 Q1009 NOSIG


Station Type Date Time Source
EDDF Decoded METAR 2021/05/11 01:20 UTC NOAA

Frankfurt / M-Flughafen, Germany (EDDF) 50-03N 008-36E 113M
May 10, 2021 - 09:20 PM EDT / 2021.05.11 0120 UTC
Wind: from the W (280 degrees) at 3 MPH (3 KT) (direction variable):0
Visibility: 4 mile(s):0
Sky conditions: partly cloudy
Weather: light rain
Temperature: 55 F (13 C)
Dew Point: 53 F (12 C)
Relative Humidity: 93%
Pressure (altimeter): 29.80 in. Hg (1009 hPa)
ob: EDDF 110120Z 28003KT 260V320 8000 -RA FEW004 SCT045 13/12 Q1009 NOSIG
cycle: 1

Station Type Date Time Source
EDDF TAF 2021/05/10 18:51 UTC NOAA

TAF EDDF 101700Z 1018/1124 24004KT 9999 SCT045
BECMG 1018/1021 BKN045 PROB30
TEMPO 1023/1106 3000 SHRA BKN012 BKN020CB
BECMG 1105/1108 30006KT PROB30
TEMPO 1112/1116 RA

Example: see airport list